Thunderstorms From: 25-05-2018 15:00 Until: 26-05-2018 15:00 warning for: Thunderstorms Level: Yellow info button

Although rather usual in this region, locally or potentially dangerous phenomena are expected. (such as local winds, summer thunderstorms, rising streams or high waves) Be aware and pay attention to the latest weather updates, especially if you carry out activities exposed to weather or close to a stream or shoreline. 


Meteo18 Weather Cam more information Meteo18 Weather Cam


warning for Thunderstorms more information blitzortung!


Rain radar more information rain snow radar


Visit our other weather sites:

Template documentation
and downloads

And another site



Weather Underground History page Text

Daily Summary for March 9, 2016 Units:  Metric    English   Both
« Previous Day
Next Day »
Daily Weekly Monthly Yearly Custom
  High: Low: Average:
Temperature: -17.8 °C -18.1 °C -15.7 °C
Dew Point: -17.8 °C -18.5 °C -16.4 °C
Humidity: Humidity % 81 % 91 %
Wind Speed: 0 km/h 0 km/h 3.4 km/h
Wind Gust: 0 km/h - -
Wind:- - WSW
Pressure: 0 hPa 33822.8 hPa -
Precipitation: 251.46 mm    
Historical Graphs
 
 
Tabular Data for March 9, 2016
Time Temperature Dew Point Pressure Wind Wind Speed Wind Gust Humidity Rainfall Rate (Hourly)
-17.8 °C -17.8 °C 0 hPa Calm     Humidity % 0 mm
00:02 -18.1 °C -18.5 °C 34405.1 hPa Calm     95 % 0 mm
00:07 -18.1 °C -18.4 °C 34405.1 hPa Calm     95 % 0 mm
00:12 -17.9 °C -18.3 °C 34395 hPa Calm     96 % 0 mm
00:17 -17.9 °C -18.3 °C 34395 hPa Calm     95 % 0 mm
00:22 -17.8 °C -18.2 °C 34384.8 hPa Calm     95 % 0 mm
00:27 -17.7 °C -18.1 °C 34384.8 hPa Calm     95 % 0 mm
00:32 -17.7 °C -18.1 °C 34384.8 hPa Calm     95 % 0 mm
00:42 -17.6 °C -18.1 °C 34384.8 hPa Calm   2.6 km/h 94 % 0 mm
00:47 -17.5 °C -18 °C 34384.8 hPa Calm   2.6 km/h 94 % 0 mm
00:52 -17.4 °C -17.9 °C 34384.8 hPa Calm   2.6 km/h 94 % 0 mm
00:57 -17.4 °C -17.9 °C 34371.3 hPa Calm     94 % 0 mm
01:02 -17.3 °C -17.9 °C 34371.3 hPa Calm   2.6 km/h 93 % 0 mm
01:07 -17.3 °C -17.8 °C 34361.1 hPa Calm   2.6 km/h 93 % 0 mm
01:12 -17.3 °C -17.8 °C 34361.1 hPa Calm   2.6 km/h 93 % 0 mm
01:17 -17.2 °C -17.8 °C 34361.1 hPa West 2.6 km/h 2.6 km/h 93 % 0 mm
01:22 -17.2 °C -17.8 °C 34347.6 hPa Calm   2.6 km/h 92 % 0 mm
01:27 -17.1 °C -17.8 °C 34347.6 hPa Calm   2.6 km/h 92 % 0 mm
01:32 -17.1 °C -17.7 °C 34347.6 hPa Calm   2.6 km/h 92 % 0 mm
01:37 -17.1 °C -17.7 °C 34347.6 hPa Calm   2.6 km/h 92 % 0 mm
01:42 -17 °C -17.7 °C 34347.6 hPa Calm   2.6 km/h 92 % 0 mm
01:47 -17 °C -17.7 °C 34347.6 hPa Calm   2.6 km/h 91 % 0 mm
01:52 -17 °C -17.7 °C 34347.6 hPa Calm   2.6 km/h 91 % 0 mm
01:57 -17 °C -17.7 °C 34337.4 hPa WSW 2.6 km/h 2.6 km/h 91 % 0 mm
02:02 -16.9 °C -17.7 °C 34337.4 hPa Calm   2.6 km/h 91 % 0 mm
02:07 -16.9 °C -17.6 °C 34337.4 hPa Calm   2.6 km/h 91 % 0 mm
02:12 -16.9 °C -17.7 °C 34327.3 hPa Calm   2.6 km/h 90 % 0 mm
02:17 -16.8 °C -17.7 °C 34327.3 hPa Calm   2.6 km/h 90 % 0 mm
02:22 -16.8 °C -17.7 °C 34327.3 hPa Calm   2.6 km/h 89 % 0 mm
02:27 -16.8 °C -17.6 °C 34313.7 hPa Calm   2.6 km/h 90 % 0 mm
02:32 -16.8 °C -17.6 °C 34313.7 hPa Calm   2.6 km/h 90 % 0 mm
02:37 -16.8 °C -17.6 °C 34303.6 hPa Calm   2.6 km/h 90 % 0 mm
02:42 -16.8 °C -17.6 °C 34303.6 hPa Calm   2.6 km/h 90 % 0 mm
02:47 -16.8 °C -17.5 °C 34293.4 hPa Calm   2.6 km/h 91 % 0 mm
02:52 -16.8 °C -17.5 °C 34293.4 hPa Calm   2.6 km/h 91 % 0 mm
02:57 -16.7 °C -17.6 °C 34293.4 hPa Calm   2.6 km/h 90 % 0 mm
03:02 -16.7 °C -17.6 °C 34293.4 hPa SSW 2.6 km/h 2.6 km/h 90 % 0 mm
03:07 -16.7 °C -17.6 °C 34279.9 hPa SW 2.6 km/h 5.1 km/h 89 % 0 mm
03:12 -16.7 °C -17.7 °C 34279.9 hPa Calm   5.1 km/h 88 % 0 mm
03:17 -16.6 °C -17.5 °C 34279.9 hPa Calm   5.1 km/h 89 % 0 mm
03:22 -16.6 °C -17.6 °C 34269.7 hPa SW 2.6 km/h 7.7 km/h 88 % 0 mm
03:27 -16.7 °C -17.6 °C 34269.7 hPa Calm   5.1 km/h 89 % 0 mm
03:32 -16.7 °C -17.6 °C 34256.2 hPa Calm   2.6 km/h 89 % 0 mm
03:37 -16.7 °C -17.6 °C 34256.2 hPa Calm   2.6 km/h 89 % 0 mm
03:42 -16.7 °C -17.6 °C 34246 hPa Calm     89 % 0 mm
03:47 -16.8 °C -17.8 °C 34246 hPa Calm     88 % 0 mm
03:52 -16.8 °C -17.8 °C 34246 hPa Calm     88 % 0 mm
03:57 -16.8 °C -17.7 °C 34235.8 hPa Calm     89 % 0 mm
04:02 -16.8 °C -17.7 °C 34235.8 hPa Calm     89 % 0 mm
04:07 -16.8 °C -17.8 °C 34235.8 hPa Calm     88 % 0 mm
04:12 -16.8 °C -17.8 °C 34222.3 hPa Calm     88 % 0 mm
04:17 -16.9 °C -17.9 °C 34222.3 hPa Calm     88 % 0 mm
04:22 -17 °C -18 °C 34212.1 hPa Calm     88 % 0 mm
04:27 -17.1 °C -18 °C 34212.1 hPa Calm     89 % 0 mm
04:32 -17.2 °C -18.1 °C 34198.6 hPa Calm     90 % 0 mm
04:37 -17.3 °C -18.1 °C 34198.6 hPa Calm     90 % 0 mm
04:42 -17.3 °C -18 °C 34188.4 hPa Calm     91 % 0 mm
04:47 -17.2 °C -17.9 °C 34188.4 hPa Calm     91 % 0 mm
04:52 -17.1 °C -17.9 °C 34188.4 hPa West 2.6 km/h 2.6 km/h 90 % 0 mm
04:57 -17.1 °C -17.9 °C 34178.3 hPa Calm   2.6 km/h 89 % 0 mm
05:02 -17 °C -17.9 °C 34178.3 hPa Calm   7.7 km/h 89 % 0 mm
05:07 -17 °C -17.9 °C 34178.3 hPa Calm   7.7 km/h 89 % 0 mm
05:12 -17 °C -17.9 °C 34178.3 hPa Calm   7.7 km/h 89 % 0 mm
05:17 -17.1 °C -17.9 °C 34164.7 hPa Calm   7.7 km/h 89 % 0 mm
05:22 -17.1 °C -17.9 °C 34164.7 hPa Calm   2.6 km/h 89 % 0 mm
05:27 -17.1 °C -17.9 °C 34154.6 hPa Calm   5.1 km/h 89 % 0 mm
05:32 -17.1 °C -17.9 °C 34154.6 hPa Calm   7.7 km/h 89 % 0 mm
05:37 -17 °C -17.9 °C 34144.4 hPa Calm   7.7 km/h 89 % 0 mm
05:42 -17 °C -17.9 °C 34144.4 hPa WSW 2.6 km/h 7.7 km/h 89 % 0 mm
05:47 -17 °C -17.9 °C 34144.4 hPa WSW 2.6 km/h 7.7 km/h 89 % 0 mm
05:52 -17 °C -17.9 °C 34130.9 hPa Calm   10.3 km/h 89 % 0 mm
05:57 -16.9 °C -17.8 °C 34120.7 hPa West 2.6 km/h 10.3 km/h 89 % 0 mm
06:02 -16.9 °C -17.8 °C 34120.7 hPa West 2.6 km/h 10.3 km/h 89 % 0 mm
06:12 -16.8 °C -17.8 °C 34107.2 hPa SW 5.1 km/h 10.3 km/h 88 % 0 mm
06:17 -16.8 °C -17.8 °C 34107.2 hPa WSW 10.3 km/h 10.3 km/h 88 % 0 mm
06:22 -16.8 °C -17.8 °C 34107.2 hPa Calm   10.3 km/h 88 % 0 mm
06:32 -16.8 °C -17.8 °C 34097 hPa Calm   10.3 km/h 88 % 0 mm
06:37 -16.8 °C -17.8 °C 34086.9 hPa Calm   10.3 km/h 88 % 0 mm
06:42 -16.7 °C -17.7 °C 34086.9 hPa Calm   10.3 km/h 88 % 0 mm
06:47 -16.7 °C -17.7 °C 34086.9 hPa Calm   15.6 km/h 88 % 0 mm
06:52 -16.7 °C -17.7 °C 34086.9 hPa SW 7.7 km/h 15.6 km/h 88 % 0 mm
06:57 -16.6 °C -17.6 °C 34086.9 hPa WSW 2.6 km/h 15.6 km/h 88 % 0 mm
07:02 -16.6 °C -17.6 °C 34073.3 hPa West 5.1 km/h 18.2 km/h 88 % 0 mm
07:12 -16.5 °C -17.5 °C 34073.3 hPa WSW 2.6 km/h 10.3 km/h 88 % 0 mm
07:17 -16.4 °C -17.4 °C 34073.3 hPa West 5.1 km/h 15.6 km/h 88 % 0 mm
07:22 -16.4 °C -17.5 °C 34063.2 hPa Calm   15.6 km/h 87 % 0 mm
07:32 -16.4 °C -17.4 °C 34049.6 hPa Calm   15.6 km/h 87 % 0 mm
07:37 -16.4 °C -17.4 °C 34049.6 hPa WSW 7.7 km/h 15.6 km/h 87 % 0 mm
07:42 -16.4 °C -17.6 °C 34039.5 hPa WSW 7.7 km/h 18.2 km/h 86 % 0 mm
07:47 -16.4 °C -17.4 °C 34039.5 hPa Calm   18.2 km/h 87 % 0 mm
07:52 -16.4 °C -17.6 °C 34029.3 hPa Calm   18.2 km/h 86 % 0 mm
07:57 -16.4 °C -17.6 °C 34015.8 hPa Calm   12.9 km/h 86 % 0 mm
08:02 -16.3 °C -17.5 °C 34005.6 hPa WSW 2.6 km/h 12.9 km/h 86 % 0 mm
08:07 -16.3 °C -17.6 °C 34005.6 hPa WSW 2.6 km/h 15.6 km/h 85 % 0 mm
08:12 -16.3 °C -17.6 °C 34005.6 hPa SSW 2.6 km/h 18.2 km/h 85 % 0 mm
08:17 -16.2 °C -17.4 °C 34005.6 hPa Calm   20.8 km/h 86 % 0 mm
08:22 -16.2 °C -17.4 °C 34005.6 hPa Calm   20.8 km/h 86 % 0 mm
08:27 -16.2 °C -17.5 °C 33992.1 hPa Calm   15.6 km/h 85 % 0 mm
08:32 -16.2 °C -17.3 °C 33992.1 hPa WSW 5.1 km/h 15.6 km/h 86 % 0 mm
08:37 -16.2 °C -17.2 °C 33992.1 hPa West 5.1 km/h 20.8 km/h 87 % 0 mm
08:42 -16.2 °C -17.3 °C 33981.9 hPa WSW 5.1 km/h 20.8 km/h 86 % 0 mm
08:47 -16.2 °C -17.2 °C 33981.9 hPa WSW 7.7 km/h 20.8 km/h 87 % 0 mm
08:52 -16.2 °C -17.2 °C 33971.7 hPa SW 5.1 km/h 23.3 km/h 87 % 0 mm
08:57 -16.2 °C -17.2 °C 33971.7 hPa WSW 5.1 km/h 23.3 km/h 88 % 0 mm
09:02 -16.2 °C -17.2 °C 33958.2 hPa West 5.1 km/h 23.3 km/h 88 % 7.62 mm
09:07 -16.2 °C -17.1 °C 33958.2 hPa WSW 2.6 km/h 20.8 km/h 89 % 12.7 mm
09:12 -16.3 °C -17.1 °C 33948 hPa Calm   20.8 km/h 90 % 12.7 mm
09:17 -16.3 °C -17 °C 33948 hPa West 7.7 km/h 20.8 km/h 91 % 12.7 mm
09:22 -16.3 °C -17.1 °C 33948 hPa WSW 5.1 km/h 12.9 km/h 91 % 20.32 mm
09:27 -16.3 °C -17 °C 33937.9 hPa WSW 7.7 km/h 12.9 km/h 92 % 25.4 mm
09:32 -16.3 °C -17 °C 33937.9 hPa West 5.1 km/h 15.6 km/h 92 % 33.02 mm
09:37 -16.4 °C -16.9 °C 33937.9 hPa SW 2.6 km/h 15.6 km/h 93 % 38.1 mm
09:42 -16.3 °C -16.9 °C 33924.3 hPa Calm   18.2 km/h 93 % 38.1 mm
09:47 -16.3 °C -16.9 °C 33924.3 hPa West 12.9 km/h 20.8 km/h 93 % 45.72 mm
09:52 -16.3 °C -16.9 °C 33914.2 hPa West 2.6 km/h 20.8 km/h 93 % 50.8 mm
09:57 -16.3 °C -16.9 °C 33914.2 hPa West 2.6 km/h 15.6 km/h 93 % 58.42 mm
10:02 -16.3 °C -16.9 °C 33900.6 hPa Calm   15.6 km/h 93 % 58.42 mm
10:07 -16.3 °C -16.9 °C 33900.6 hPa WSW 5.1 km/h 15.6 km/h 93 % 50.8 mm
10:12 -16.3 °C -16.9 °C 33900.6 hPa West 5.1 km/h 18.2 km/h 93 % 45.72 mm
10:17 -16.3 °C -16.8 °C 33900.6 hPa WNW 5.1 km/h 25.9 km/h 94 % 38.1 mm
10:22 -16.3 °C -16.8 °C 33890.5 hPa WSW 2.6 km/h 25.9 km/h 94 % 50.8 mm
10:27 -16.3 °C -16.8 °C 33890.5 hPa West 5.1 km/h 25.9 km/h 93 % 45.72 mm
10:32 -16.3 °C -16.8 °C 33890.5 hPa WSW 5.1 km/h 15.6 km/h 94 % 38.1 mm
10:37 -16.3 °C -16.8 °C 33890.5 hPa East 2.6 km/h 15.6 km/h 94 % 38.1 mm
10:42 -16.3 °C -16.8 °C 33880.3 hPa WNW 5.1 km/h 15.6 km/h 94 % 38.1 mm
10:47 -16.3 °C -16.8 °C 33880.3 hPa West 5.1 km/h 15.6 km/h 94 % 38.1 mm
10:52 -16.3 °C -16.8 °C 33880.3 hPa West 5.1 km/h 15.6 km/h 94 % 50.8 mm
10:57 -16.3 °C -16.7 °C 33880.3 hPa WNW 5.1 km/h 18.2 km/h 95 % 50.8 mm
11:02 -16.3 °C -16.7 °C 33880.3 hPa Calm   20.8 km/h 95 % 58.42 mm
11:07 -16.3 °C -16.8 °C 33880.3 hPa WSW 2.6 km/h 20.8 km/h 94 % 71.12 mm
11:12 -16.3 °C -16.8 °C 33880.3 hPa Calm   20.8 km/h 94 % 76.2 mm
11:17 -16.3 °C -16.8 °C 33880.3 hPa SW 2.6 km/h 18.2 km/h 94 % 83.82 mm
11:22 -16.3 °C -16.8 °C 33880.3 hPa Calm   18.2 km/h 94 % 104.14 mm
11:27 -16.3 °C -16.7 °C 33866.8 hPa West 2.6 km/h 15.6 km/h 95 % 109.22 mm
11:32 -16.3 °C -16.7 °C 33866.8 hPa West 2.6 km/h 15.6 km/h 95 % 121.92 mm
11:37 -16.3 °C -16.7 °C 33856.6 hPa SW 7.7 km/h 15.6 km/h 95 % 116.84 mm
11:42 -16.2 °C -16.6 °C 33856.6 hPa Calm   15.6 km/h 95 % 116.84 mm
11:47 -16.1 °C -16.4 °C 33856.6 hPa WNW 2.6 km/h 15.6 km/h 95 % 109.22 mm
11:52 -16.1 °C -16.4 °C 33843.1 hPa Calm   15.6 km/h 95 % 109.22 mm
11:57 -16 °C -16.4 °C 33843.1 hPa West 5.1 km/h 12.9 km/h 95 % 104.14 mm
12:02 -15.9 °C -16.3 °C 33843.1 hPa West 12.9 km/h 15.6 km/h 95 % 91.44 mm
12:07 -15.9 °C -16.3 °C 33843.1 hPa West 5.1 km/h 20.8 km/h 95 % 76.2 mm
12:12 -15.9 °C -16.3 °C 33832.9 hPa WSW 5.1 km/h 20.8 km/h 95 % 63.5 mm
12:22 -15.8 °C -16.2 °C 33843.1 hPa West 7.7 km/h 25.9 km/h 95 % 38.1 mm
12:27 -15.7 °C -16.1 °C 33843.1 hPa West 2.6 km/h 25.9 km/h 95 % 25.4 mm
12:32 -15.7 °C -16.1 °C 33843.1 hPa West 12.9 km/h 20.8 km/h 95 % 12.7 mm
12:42 -15.6 °C -16 °C 33832.9 hPa West 5.1 km/h 20.8 km/h 95 % 12.7 mm
12:47 -15.6 °C -15.9 °C 33832.9 hPa West 12.9 km/h 18.2 km/h 95 % 12.7 mm
12:52 -15.5 °C -15.9 °C 33832.9 hPa SW 7.7 km/h 31.1 km/h 95 % 12.7 mm
12:57 -15.4 °C -15.8 °C 33832.9 hPa West 10.3 km/h 31.1 km/h 95 % 7.62 mm
13:02 -15.4 °C -15.8 °C 33832.9 hPa WSW 10.3 km/h 31.1 km/h 95 % 7.62 mm
13:07 -15.3 °C -15.7 °C 33832.9 hPa WSW 2.6 km/h 18.2 km/h 96 % 7.62 mm
13:12 -15.3 °C -15.7 °C 33832.9 hPa East 2.6 km/h 18.2 km/h 96 % 7.62 mm
13:17 -15.3 °C -15.6 °C 33832.9 hPa SW 7.7 km/h 18.2 km/h 96 % 7.62 mm
13:22 -15.2 °C -15.6 °C 33832.9 hPa West 5.1 km/h 20.8 km/h 96 % 7.62 mm
13:27 -15.1 °C -15.4 °C 33822.8 hPa ESE 2.6 km/h 20.8 km/h 96 % 7.62 mm
13:32 -15 °C -15.3 °C 33822.8 hPa WNW 10.3 km/h 25.9 km/h 96 % 7.62 mm
13:37 -14.9 °C -15.2 °C 33822.8 hPa WSW 2.6 km/h 25.9 km/h 96 % 7.62 mm
13:42 -14.8 °C -15.1 °C 33832.9 hPa WSW 2.6 km/h 20.8 km/h 96 % 0 mm
13:47 -14.7 °C -15 °C 33832.9 hPa SW 7.7 km/h 20.8 km/h 96 % 0 mm
13:52 -14.6 °C -14.9 °C 33832.9 hPa WSW 5.1 km/h 15.6 km/h 96 % 0 mm
13:57 -14.4 °C -14.7 °C 33832.9 hPa SE 5.1 km/h 15.6 km/h 96 % 0 mm
14:02 -14.2 °C -14.4 °C 33832.9 hPa WSW 2.6 km/h 15.6 km/h 97 % 0 mm
14:07 -13.9 °C -14.3 °C 33822.8 hPa SW 2.6 km/h 12.9 km/h 96 % 0 mm
14:12 -13.8 °C -14.2 °C 33822.8 hPa WNW 5.1 km/h 18.2 km/h 95 % 0 mm
14:17 -13.7 °C -14.3 °C 33822.8 hPa Calm   18.2 km/h 93 % 0 mm
14:22 -13.7 °C -14.3 °C 33822.8 hPa Calm   18.2 km/h 93 % 0 mm
14:27 -13.7 °C -14.4 °C 33822.8 hPa SW 12.9 km/h 15.6 km/h 92 % 0 mm
14:32 -13.9 °C -14.7 °C 33832.9 hPa WSW 5.1 km/h 15.6 km/h 91 % 7.62 mm
14:37 -14.2 °C -15 °C 33843.1 hPa WSW 7.7 km/h 31.1 km/h 90 % 12.7 mm
14:42 -14.2 °C -15 °C 33832.9 hPa Calm   31.1 km/h 91 % 12.7 mm
14:47 -14.1 °C -14.8 °C 33832.9 hPa Calm   31.1 km/h 92 % 12.7 mm
14:52 -13.9 °C -14.6 °C 33832.9 hPa SW 5.1 km/h 25.9 km/h 92 % 12.7 mm
14:57 -13.6 °C -14.2 °C 33832.9 hPa SW 7.7 km/h 10.3 km/h 92 % 12.7 mm
15:02 -13.3 °C -14.2 °C 33843.1 hPa WSW 10.3 km/h 10.3 km/h 89 % 12.7 mm
15:12 -13.4 °C -14.5 °C 33843.1 hPa SW 12.9 km/h 15.6 km/h 87 % 12.7 mm
15:17 -13.4 °C -14.4 °C 33843.1 hPa WSW 12.9 km/h 20.8 km/h 88 % 12.7 mm
15:22 -13.4 °C -14.6 °C 33832.9 hPa West 10.3 km/h 25.9 km/h 86 % 12.7 mm
15:27 -13.4 °C -14.6 °C 33832.9 hPa SW 15.6 km/h 25.9 km/h 86 % 12.7 mm
15:32 -13.4 °C -14.7 °C 33843.1 hPa SW 7.7 km/h 25.9 km/h 86 % 12.7 mm
15:42 -13.3 °C -14.6 °C 33843.1 hPa WSW 5.1 km/h 20.8 km/h 85 % 0 mm
15:47 -13.2 °C -14.3 °C 33843.1 hPa WSW 7.7 km/h 18.2 km/h 88 % 0 mm
15:52 -13.2 °C -14.3 °C 33832.9 hPa WSW 15.6 km/h 18.2 km/h 87 % 0 mm
15:57 -13.3 °C -14.5 °C 33832.9 hPa SW 10.3 km/h 18.2 km/h 86 % 0 mm
16:02 -13.3 °C -14.6 °C 33843.1 hPa SSE 10.3 km/h 20.8 km/h 85 % 0 mm
16:07 -13.2 °C -14.4 °C 33832.9 hPa SW 7.7 km/h 20.8 km/h 86 % 0 mm
16:12 -12.9 °C -14.1 °C 33832.9 hPa WSW 2.6 km/h 18.2 km/h 87 % 0 mm
16:22 -12.3 °C -13.9 °C 33832.9 hPa WSW 15.6 km/h 25.9 km/h 82 % 0 mm
16:32 -12.6 °C -14.3 °C 33843.1 hPa SW 20.8 km/h 20.8 km/h 81 % 0 mm
16:37 -12.8 °C -14.6 °C 33843.1 hPa SW 7.7 km/h 25.9 km/h 81 % 0 mm
16:42 -13 °C -14.7 °C 33843.1 hPa SSW 5.1 km/h 25.9 km/h 81 % 0 mm
16:47 -13.1 °C -14.7 °C 33843.1 hPa WSW 18.2 km/h 33.6 km/h 82 % 7.62 mm
16:57 -13.4 °C -14.9 °C 33856.6 hPa SW 5.1 km/h 23.3 km/h 83 % 7.62 mm
17:02 -13.6 °C -14.9 °C 33856.6 hPa SW 5.1 km/h 20.8 km/h 84 % 7.62 mm
17:07 -13.7 °C -15.1 °C 33856.6 hPa SW 10.3 km/h 18.2 km/h 85 % 7.62 mm
17:12 -13.8 °C -15.1 °C 33856.6 hPa SW 2.6 km/h 15.6 km/h 86 % 7.62 mm
17:17 -13.8 °C -15.1 °C 33866.8 hPa SW 5.1 km/h 15.6 km/h 86 % 7.62 mm
17:22 -13.8 °C -14.9 °C 33856.6 hPa SSE 15.6 km/h 18.2 km/h 87 % 7.62 mm
17:27 -13.7 °C -14.8 °C 33866.8 hPa Calm   18.2 km/h 87 % 7.62 mm
17:32 -13.8 °C -15.1 °C 33866.8 hPa SSW 5.1 km/h 18.2 km/h 86 % 7.62 mm
17:37 -14 °C -15.2 °C 33866.8 hPa WSW 5.1 km/h 15.6 km/h 86 % 7.62 mm
17:47 -14.2 °C -15.2 °C 33880.3 hPa SSW 7.7 km/h 12.9 km/h 88 % 0 mm
17:52 -14.3 °C -15.3 °C 33880.3 hPa SW 7.7 km/h 18.2 km/h 88 % 0 mm
17:57 -14.5 °C -15.4 °C 33880.3 hPa Calm   18.2 km/h 89 % 7.62 mm
18:02 -14.6 °C -15.4 °C 33880.3 hPa Calm   18.2 km/h 90 % 12.7 mm
18:07 -14.6 °C -15.4 °C 33880.3 hPa Calm   12.9 km/h 90 % 12.7 mm
18:12 -14.6 °C -15.4 °C 33880.3 hPa Calm   5.1 km/h 90 % 12.7 mm
18:17 -14.7 °C -15.5 °C 33890.5 hPa Calm   5.1 km/h 90 % 12.7 mm
18:22 -14.8 °C -15.6 °C 33890.5 hPa Calm   5.1 km/h 90 % 12.7 mm
18:27 -14.8 °C -15.7 °C 33890.5 hPa Calm   5.1 km/h 90 % 12.7 mm
18:32 -14.9 °C -15.6 °C 33890.5 hPa Calm   5.1 km/h 91 % 12.7 mm
18:37 -14.9 °C -15.7 °C 33890.5 hPa Calm   2.6 km/h 91 % 12.7 mm
18:42 -15 °C -15.7 °C 33900.6 hPa Calm   2.6 km/h 92 % 12.7 mm
18:52 -15.1 °C -15.7 °C 33900.6 hPa Calm     93 % 7.62 mm
18:57 -15.1 °C -15.7 °C 33900.6 hPa Calm     93 % 7.62 mm
19:02 -15.1 °C -15.6 °C 33914.2 hPa Calm     94 % 0 mm
19:07 -15.1 °C -15.6 °C 33914.2 hPa NNW 2.6 km/h   94 % 0 mm
19:12 -15.1 °C -15.6 °C 33914.2 hPa Calm   5.1 km/h 94 % 0 mm
19:17 -15.1 °C -15.4 °C 33914.2 hPa Calm   5.1 km/h 95 % 0 mm
19:22 -15 °C -15.4 °C 33924.3 hPa Calm   5.1 km/h 95 % 0 mm
19:32 -14.9 °C -15.4 °C 33924.3 hPa SW 2.6 km/h 10.3 km/h 94 % 0 mm
19:37 -14.8 °C -15.3 °C 33937.9 hPa SSW 2.6 km/h 10.3 km/h 94 % 0 mm
19:42 -14.8 °C -15.3 °C 33937.9 hPa SW 5.1 km/h 10.3 km/h 94 % 0 mm
19:47 -14.8 °C -15.3 °C 33937.9 hPa WSW 5.1 km/h 10.3 km/h 94 % 0 mm
19:52 -14.9 °C -15.4 °C 33937.9 hPa SW 5.1 km/h 10.3 km/h 94 % 0 mm
20:02 -14.9 °C -15.4 °C 33937.9 hPa WSW 5.1 km/h 7.7 km/h 94 % 0 mm
20:07 -14.9 °C -15.4 °C 33937.9 hPa SW 2.6 km/h 7.7 km/h 94 % 0 mm
20:12 -14.9 °C -15.4 °C 33948 hPa SW 5.1 km/h 7.7 km/h 93 % 0 mm
20:17 -14.9 °C -15.4 °C 33948 hPa SW 2.6 km/h 10.3 km/h 93 % 0 mm
20:22 -14.9 °C -15.4 °C 33948 hPa SW 5.1 km/h 10.3 km/h 93 % 0 mm
20:27 -14.9 °C -15.6 °C 33948 hPa SW 2.6 km/h 10.3 km/h 92 % 0 mm
20:32 -14.9 °C -15.4 °C 33958.2 hPa SW 5.1 km/h 10.3 km/h 93 % 0 mm
20:37 -14.9 °C -15.6 °C 33958.2 hPa SW 2.6 km/h 12.9 km/h 92 % 0 mm
20:42 -14.9 °C -15.6 °C 33958.2 hPa SW 7.7 km/h 12.9 km/h 92 % 0 mm
20:52 -14.9 °C -15.6 °C 33958.2 hPa WSW 5.1 km/h 12.9 km/h 92 % 0 mm
20:57 -14.9 °C -15.6 °C 33958.2 hPa SW 5.1 km/h 18.2 km/h 92 % 0 mm
21:02 -14.9 °C -15.7 °C 33958.2 hPa SSW 5.1 km/h 18.2 km/h 91 % 0 mm
21:07 -14.9 °C -15.7 °C 33958.2 hPa WSW 10.3 km/h 18.2 km/h 91 % 0 mm
21:12 -14.9 °C -15.7 °C 33958.2 hPa SSW 5.1 km/h 15.6 km/h 91 % 0 mm
21:17 -14.9 °C -15.7 °C 33971.7 hPa SW 2.6 km/h 15.6 km/h 91 % 0 mm
21:22 -14.9 °C -15.6 °C 33971.7 hPa SSW 2.6 km/h 15.6 km/h 92 % 0 mm
21:27 -15 °C -15.7 °C 33971.7 hPa West 5.1 km/h 15.6 km/h 92 % 0 mm
21:32 -15.1 °C -15.7 °C 33981.9 hPa SSW 5.1 km/h 15.6 km/h 92 % 0 mm
21:37 -15.1 °C -15.7 °C 33981.9 hPa WSW 5.1 km/h 15.6 km/h 92 % 0 mm
21:42 -15.1 °C -15.6 °C 33981.9 hPa SW 10.3 km/h 12.9 km/h 93 % 0 mm
21:47 -15.1 °C -15.7 °C 33981.9 hPa WSW 5.1 km/h 12.9 km/h 93 % 0 mm
21:52 -15.1 °C -15.7 °C 33992.1 hPa SW 7.7 km/h 12.9 km/h 93 % 0 mm
21:57 -15.1 °C -15.7 °C 33992.1 hPa SSW 7.7 km/h 10.3 km/h 93 % 0 mm
22:02 -15.1 °C -15.7 °C 33992.1 hPa SSW 2.6 km/h 10.3 km/h 93 % 0 mm
22:07 -15.1 °C -15.7 °C 33992.1 hPa SW 2.6 km/h 10.3 km/h 93 % 0 mm
22:12 -15.1 °C -15.7 °C 33992.1 hPa SW 5.1 km/h 10.3 km/h 93 % 0 mm
22:17 -15.2 °C -15.7 °C 33992.1 hPa WSW 2.6 km/h 10.3 km/h 93 % 0 mm
22:27 -15.2 °C -15.7 °C 33992.1 hPa SW 5.1 km/h 7.7 km/h 94 % 0 mm
22:32 -15.2 °C -15.7 °C 34005.6 hPa SW 2.6 km/h 7.7 km/h 94 % 0 mm
22:37 -15.2 °C -15.7 °C 34005.6 hPa WSW 2.6 km/h 7.7 km/h 94 % 0 mm
22:42 -15.2 °C -15.7 °C 34005.6 hPa SW 2.6 km/h 10.3 km/h 94 % 0 mm
22:52 -15.3 °C -15.8 °C 34005.6 hPa Calm   7.7 km/h 94 % 0 mm
22:57 -15.3 °C -15.8 °C 34005.6 hPa SW 2.6 km/h 7.7 km/h 94 % 0 mm
23:02 -15.3 °C -15.8 °C 34005.6 hPa WSW 2.6 km/h 7.7 km/h 94 % 0 mm
23:07 -15.3 °C -15.8 °C 34005.6 hPa Calm   7.7 km/h 94 % 0 mm
23:12 -15.3 °C -15.8 °C 34005.6 hPa WSW 2.6 km/h 7.7 km/h 94 % 0 mm
23:17 -15.3 °C -15.8 °C 34015.8 hPa SW 2.6 km/h 7.7 km/h 94 % 0 mm
23:22 -15.3 °C -15.8 °C 34015.8 hPa Calm   5.1 km/h 94 % 0 mm
23:27 -15.3 °C -15.8 °C 34015.8 hPa Calm   5.1 km/h 94 % 0 mm
23:32 -15.3 °C -15.8 °C 34015.8 hPa WSW 5.1 km/h 10.3 km/h 94 % 0 mm
23:37 -15.4 °C -15.9 °C 34015.8 hPa Calm   10.3 km/h 94 % 0 mm
23:42 -15.4 °C -15.9 °C 34015.8 hPa Calm   7.7 km/h 94 % 0 mm
23:52 -15.6 °C -16.1 °C 34015.8 hPa SW 5.1 km/h 5.1 km/h 94 % 0 mm
23:57 -15.7 °C -16.1 °C 34015.8 hPa SW 2.6 km/h 5.1 km/h 95 % 0 mm
Meteo18
Compliments of Weather Underground - 4 mb

Script developed by  Jim McMurry - jmcmurry@mwt.net Adapted for the template by  Wim van der Kuil - Leuven-Template.eu

You find our weather info also at:

European Weather Network

Weather Underground

Equipment we use:

Weather-station
Davis Vue

Weather-program
Meteobridge

Weather-server
Raspberry PI 2 B+

Provider
1 and 1

Davis Vue

Meteobridge

Raspberry PI 2 B+

1 and 1